Time;durP1;ratioP1;P1;durP2;ratioP2;P2;SDS_P1;SDS_P2;PMS_P1;PMS_P2;Temp;Humidity;BMP_temperature;BMP_pressure;BME280_temperature;BME280_humidity;BME280_pressure;Samples;Min_cycle;Max_cycle;Signal;HPM_P1;HPM_P2
2023/03/31 00:02:12;;;;;;;2.60;2.40;;;;;;;-143.84;43.65;45159.50;5069226;28;20437;-76
2023/03/31 00:04:45;;;;;;;2.90;2.70;;;;;;;-143.84;43.94;45205.22;5069447;28;20456;-76
2023/03/31 00:07:15;;;;;;;4.87;2.90;;;;;;;-143.84;43.90;45210.94;5069097;28;20441;-76
2023/03/31 00:09:44;;;;;;;4.00;2.90;;;;;;;-143.84;43.76;45172.84;5067205;28;20518;-76
2023/03/31 00:12:12;;;;;;;5.57;2.70;;;;;;;-143.84;43.59;45174.75;5047116;28;20537;-76
2023/03/31 00:14:40;;;;;;;2.67;2.50;;;;;;;-143.84;43.15;45180.47;5048096;28;20562;-76
2023/03/31 00:17:08;;;;;;;4.20;2.30;;;;;;;-143.84;42.96;45195.69;5048676;28;20426;-76
2023/03/31 00:19:36;;;;;;;4.10;2.47;;;;;;;-143.84;43.17;45188.06;5048551;28;20445;-75
2023/03/31 00:22:04;;;;;;;11.43;2.53;;;;;;;-143.84;43.32;45207.13;5051088;28;20445;-76
2023/03/31 00:24:31;;;;;;;3.03;2.50;;;;;;;-143.84;43.56;45163.31;5053548;28;20812;-76
2023/03/31 00:26:59;;;;;;;4.47;3.00;;;;;;;-143.84;43.28;45207.13;5053056;28;20947;-76
2023/03/31 00:29:26;;;;;;;3.80;2.93;;;;;;;-143.84;43.70;45169.03;5053403;28;20860;-76
2023/03/31 00:31:54;;;;;;;8.40;2.83;;;;;;;-143.84;44.10;45191.88;5053373;28;21158;-76
2023/03/31 00:34:22;;;;;;;4.23;2.97;;;;;;;-143.84;43.87;45186.16;5053112;28;20516;-76
2023/03/31 00:36:49;;;;;;;3.63;2.80;;;;;;;-143.84;43.80;45174.75;5053322;28;20527;-76
2023/03/31 00:39:19;;;;;;;2.77;2.40;;;;;;;-143.84;44.22;45214.72;5052969;28;21298;-76
2023/03/31 00:41:46;;;;;;;11.13;4.53;;;;;;;-143.84;44.12;45157.59;5053003;28;20513;-76
2023/03/31 00:44:17;;;;;;;10.93;4.33;;;;;;;-143.84;44.02;45167.13;5053182;28;20507;-76
2023/03/31 00:46:49;;;;;;;5.20;3.40;;;;;;;-143.84;43.68;45197.59;5052555;28;20481;-76
2023/03/31 00:49:22;;;;;;;3.63;2.77;;;;;;;-143.84;44.09;45165.22;5052716;28;20422;-76
2023/03/31 00:51:54;;;;;;;2.57;2.37;;;;;;;-143.84;44.34;45176.66;5052884;28;20434;-75
2023/03/31 00:54:24;;;;;;;2.90;2.70;;;;;;;-143.84;44.09;45176.66;5052801;28;20478;-75
2023/03/31 00:56:54;;;;;;;11.03;5.57;;;;;;;-143.84;44.25;45189.97;5051416;28;20438;-75
2023/03/31 00:59:26;;;;;;;13.63;6.60;;;;;;;-143.84;44.27;45189.97;5050773;28;20840;-76
2023/03/31 01:01:58;;;;;;;5.60;3.97;;;;;;;-143.84;44.10;45178.56;5051145;28;20457;-76
2023/03/31 01:04:26;;;;;;;14.20;8.63;;;;;;;-143.84;44.03;45203.31;5050567;28;20541;-76
2023/03/31 01:07:01;;;;;;;5.57;4.53;;;;;;;-143.84;43.91;45193.78;5050008;28;20818;-76
2023/03/31 01:09:33;;;;;;;5.47;3.83;;;;;;;-143.84;43.54;45205.22;5050546;28;20461;-76
2023/03/31 01:12:04;;;;;;;2.87;2.57;;;;;;;-143.84;43.62;45186.16;5070248;28;20496;-76
2023/03/31 01:14:32;;;;;;;7.23;3.10;;;;;;;-143.84;43.62;45191.88;5071244;28;20472;-76
2023/03/31 01:17:01;;;;;;;5.57;3.00;;;;;;;-143.84;43.47;45186.16;5072086;28;20857;-76
2023/03/31 01:19:38;;;;;;;24.17;3.73;;;;;;;-143.84;43.49;45170.94;5072306;28;20456;-76
2023/03/31 01:22:49;;;;;;;5.67;4.00;;;;;;;-143.84;43.57;45188.06;5072357;28;20900;-76
2023/03/31 01:25:51;;;;;;;6.43;4.80;;;;;;;-143.84;43.62;45170.94;5054515;28;20444;-76
2023/03/31 01:28:28;;;;;;;3.70;3.40;;;;;;;-143.84;43.53;45186.16;5069018;28;20517;-76
2023/03/31 01:31:27;;;;;;;2.80;2.10;;;;;;;-143.84;43.59;45203.31;5072109;28;21023;-76
2023/03/31 01:34:22;;;;;;;2.77;2.57;;;;;;;-143.84;43.45;45193.78;5070765;28;20571;-76
2023/03/31 01:37:23;;;;;;;2.80;2.60;;;;;;;-143.84;43.92;45203.31;5054927;28;20502;-75
2023/03/31 01:40:10;;;;;;;4.27;3.30;;;;;;;-143.84;43.63;45167.13;5071802;28;20440;-76
2023/03/31 01:42:43;;;;;;;4.97;3.20;;;;;;;-143.84;44.07;45195.69;5071402;28;20942;-76
2023/03/31 01:45:19;;;;;;;4.80;3.37;;;;;;;-143.84;43.73;45199.50;5071839;28;21006;-76
2023/03/31 01:47:53;;;;;;;4.63;3.30;;;;;;;-143.84;43.98;45199.50;5071807;28;20441;-77
2023/03/31 01:50:26;;;;;;;5.73;3.27;;;;;;;-143.84;44.30;45178.56;5071003;28;20544;-76
2023/03/31 01:53:02;;;;;;;9.07;3.20;;;;;;;-143.84;44.01;45169.03;5070942;28;20475;-76
2023/03/31 01:55:37;;;;;;;3.10;2.80;;;;;;;-143.84;44.16;45180.47;5070810;28;20468;-76
2023/03/31 01:58:12;;;;;;;7.10;3.60;;;;;;;-143.84;44.28;45191.88;5071260;28;20503;-76
2023/03/31 02:00:43;;;;;;;3.60;3.10;;;;;;;-143.84;44.36;45197.59;5071370;28;20450;-75
2023/03/31 02:03:17;;;;;;;3.20;2.87;;;;;;;-143.84;44.55;45174.75;5070636;28;20433;-76
2023/03/31 02:05:49;;;;;;;3.50;3.20;;;;;;;-143.84;44.47;45170.94;5070339;28;20498;-76
2023/03/31 02:08:21;;;;;;;4.10;3.70;;;;;;;-143.84;44.72;45189.97;5070093;28;20449;-76
2023/03/31 02:10:53;;;;;;;4.57;3.93;;;;;;;-143.84;44.36;45176.66;5069307;28;20477;-76
2023/03/31 02:13:21;;;;;;;5.67;4.30;;;;;;;-143.84;44.49;45195.69;5070413;28;20452;-76
2023/03/31 02:15:53;;;;;;;3.67;3.20;;;;;;;-143.84;44.44;45193.78;5070575;28;21113;-76
2023/03/31 02:18:26;;;;;;;3.30;3.10;;;;;;;-143.84;44.81;45207.13;5071033;28;20432;-75
2023/03/31 02:20:57;;;;;;;4.67;2.50;;;;;;;-143.84;44.70;45167.13;5071082;28;20448;-75
2023/03/31 02:23:30;;;;;;;4.53;3.13;;;;;;;-143.84;45.04;45169.03;5070867;28;20456;-75
2023/03/31 02:26:02;;;;;;;6.40;3.80;;;;;;;-143.84;44.93;45174.75;5070464;28;20849;-76
2023/03/31 02:28:31;;;;;;;5.03;4.20;;;;;;;-143.84;45.07;45205.22;5070619;28;20448;-76
2023/03/31 02:31:07;;;;;;;7.70;4.30;;;;;;;-143.84;44.94;45214.72;5070648;28;20429;-75
2023/03/31 02:33:35;;;;;;;6.57;4.37;;;;;;;-143.84;45.10;45216.63;5070440;28;20864;-75
2023/03/31 02:36:03;;;;;;;8.33;3.70;;;;;;;-143.84;45.11;45199.50;5070369;28;20453;-76
2023/03/31 02:38:33;;;;;;;17.20;4.10;;;;;;;-143.84;45.19;45159.50;5070310;28;20518;-76
2023/03/31 02:41:01;;;;;;;4.43;3.53;;;;;;;-143.84;44.96;45203.31;5069426;28;20449;-76
2023/03/31 02:43:29;;;;;;;5.77;3.87;;;;;;;-143.84;45.08;45184.25;5069393;28;21023;-76
2023/03/31 02:45:56;;;;;;;3.50;3.20;;;;;;;-143.84;45.27;45169.03;5070255;28;20834;-76
2023/03/31 02:48:27;;;;;;;7.80;3.40;;;;;;;-143.84;45.05;45199.50;5070502;28;20429;-76
2023/03/31 02:51:23;;;;;;;3.80;2.70;;;;;;;-143.84;45.13;45186.16;5069682;28;20437;-76
2023/03/31 02:54:08;;;;;;;3.43;3.13;;;;;;;-143.84;45.02;45178.56;5063054;28;20455;-76
2023/03/31 02:56:49;;;;;;;3.13;2.90;;;;;;;-143.84;44.79;45176.66;5069986;28;20437;-76
2023/03/31 02:59:27;;;;;;;4.70;2.80;;;;;;;-143.84;45.17;45207.13;5070368;28;20474;-76
2023/03/31 03:02:08;;;;;;;3.20;2.60;;;;;;;-143.84;44.63;45201.41;5070554;28;20433;-77
2023/03/31 03:05:04;;;;;;;6.40;2.93;;;;;;;-143.84;44.55;45163.31;5070339;28;20439;-76
2023/03/31 03:07:40;;;;;;;3.97;3.10;;;;;;;-143.84;44.66;45184.25;5070447;28;20448;-76
2023/03/31 03:10:12;;;;;;;6.00;4.13;;;;;;;-143.84;44.52;45199.50;5069822;28;20496;-76
2023/03/31 03:12:49;;;;;;;7.13;4.80;;;;;;;-143.84;44.53;45170.94;5070006;28;20440;-76
2023/03/31 03:15:22;;;;;;;10.00;5.30;;;;;;;-143.84;44.46;45191.88;5067724;28;20541;-76
2023/03/31 03:17:50;;;;;;;7.60;6.20;;;;;;;-143.84;44.13;45174.75;5069686;28;21375;-76
2023/03/31 03:20:20;;;;;;;8.87;7.03;;;;;;;-143.84;44.47;45195.69;5069680;28;20437;-76
2023/03/31 03:22:47;;;;;;;36.27;6.23;;;;;;;-143.84;44.44;45210.94;5070001;28;20431;-76
2023/03/31 03:25:17;;;;;;;6.60;5.50;;;;;;;-143.84;44.33;45176.66;5069836;28;21012;-76
2023/03/31 03:27:45;;;;;;;3.73;3.40;;;;;;;-143.84;44.81;45212.84;5070168;28;20445;-76
2023/03/31 03:30:14;;;;;;;7.83;4.30;;;;;;;-143.84;44.75;45189.97;5069928;28;20449;-76
2023/03/31 03:32:41;;;;;;;4.57;4.17;;;;;;;-143.84;45.07;45197.59;5069947;28;20436;-76
2023/03/31 03:35:10;;;;;;;4.60;4.20;;;;;;;-143.84;44.92;45161.41;5069634;28;20476;-76
2023/03/31 03:37:37;;;;;;;6.43;4.17;;;;;;;-143.84;44.78;45203.31;5070340;28;20433;-76
2023/03/31 03:40:05;;;;;;;7.40;4.57;;;;;;;-143.84;44.97;45195.69;5069740;28;20441;-76
2023/03/31 03:42:32;;;;;;;6.40;5.47;;;;;;;-143.84;45.35;45165.22;5069751;28;20528;-76
2023/03/31 03:45:01;;;;;;;4.87;4.40;;;;;;;-143.84;45.54;45239.50;5069977;28;20514;-76
2023/03/31 03:47:28;;;;;;;4.17;3.60;;;;;;;-143.84;45.83;45182.38;5069927;28;20437;-76
2023/03/31 03:49:56;;;;;;;4.93;3.70;;;;;;;-143.84;46.05;45180.47;5069837;28;21142;-76
2023/03/31 03:52:23;;;;;;;5.03;3.60;;;;;;;-143.84;45.98;45207.13;5069546;28;20436;-76
2023/03/31 03:54:50;;;;;;;9.03;2.80;;;;;;;-143.84;45.94;45176.66;5069089;28;20561;-76
2023/03/31 03:57:17;;;;;;;3.83;3.47;;;;;;;-143.84;46.06;45197.59;5071653;28;20483;-76
2023/03/31 03:59:44;;;;;;;4.87;3.20;;;;;;;-143.84;46.41;45191.88;5072193;28;20451;-76
2023/03/31 04:02:13;;;;;;;8.40;2.83;;;;;;;-143.84;46.01;45159.50;5073425;28;20448;-76
2023/03/31 04:04:40;;;;;;;4.57;3.23;;;;;;;-143.84;46.63;45188.06;5073538;28;20811;-76
2023/03/31 04:07:07;;;;;;;10.37;5.50;;;;;;;-143.84;47.02;45220.44;5073476;28;20490;-76
2023/03/31 04:09:34;;;;;;;9.70;6.50;;;;;;;-143.84;47.40;45165.22;5073582;28;20522;-76
2023/03/31 04:12:01;;;;;;;11.53;6.30;;;;;;;-143.84;47.43;45174.75;5073130;28;20534;-76
2023/03/31 04:14:29;;;;;;;14.73;7.60;;;;;;;-143.84;47.52;45167.13;5073270;28;20476;-76
2023/03/31 04:16:57;;;;;;;11.27;4.33;;;;;;;-143.84;47.30;45199.50;5073540;28;20786;-76
2023/03/31 04:19:26;;;;;;;6.47;4.53;;;;;;;-143.84;47.84;45174.75;5073575;28;20448;-76
2023/03/31 04:21:57;;;;;;;5.93;3.90;;;;;;;-143.84;47.96;45176.66;5073259;28;20745;-76
2023/03/31 04:24:31;;;;;;;7.83;5.17;;;;;;;-143.84;47.89;45174.75;5073311;28;20437;-76
2023/03/31 04:26:59;;;;;;;7.43;4.70;;;;;;;-143.84;48.40;45176.66;5073247;28;20841;-76
2023/03/31 04:29:26;;;;;;;6.77;5.17;;;;;;;-143.84;48.48;45201.41;5071934;28;20443;-76
2023/03/31 04:31:57;;;;;;;5.13;3.57;;;;;;;-143.84;48.49;45197.59;5070869;28;20900;-76
2023/03/31 04:34:33;;;;;;;5.47;3.30;;;;;;;-143.84;48.76;45167.13;5071410;28;20441;-76
2023/03/31 04:37:01;;;;;;;3.57;3.10;;;;;;;-143.84;48.84;45174.75;5072850;28;20452;-76
2023/03/31 04:39:30;;;;;;;3.37;3.17;;;;;;;-143.84;48.79;45174.75;5071591;28;20440;-76
2023/03/31 04:41:58;;;;;;;7.53;3.17;;;;;;;-143.84;49.14;45167.13;5071879;28;20490;-76
2023/03/31 04:44:26;;;;;;;4.07;2.67;;;;;;;-143.84;49.20;45174.75;5071388;28;20432;-76
2023/03/31 04:46:53;;;;;;;6.20;3.20;;;;;;;-143.84;49.00;45180.47;5071558;28;20874;-76
2023/03/31 04:49:20;;;;;;;4.03;3.40;;;;;;;-143.84;49.14;45178.56;5072251;28;20523;-76
2023/03/31 04:51:49;;;;;;;4.93;3.23;;;;;;;-143.84;48.85;45165.22;5070260;28;20449;-76
2023/03/31 04:54:16;;;;;;;4.00;3.60;;;;;;;-143.84;48.45;45155.69;5070585;28;20440;-76
2023/03/31 04:56:44;;;;;;;4.40;4.00;;;;;;;-143.84;47.69;45184.25;5072223;28;20483;-78
2023/03/31 04:59:11;;;;;;;16.70;4.33;;;;;;;-143.84;47.52;45180.47;5073186;28;20942;-78
2023/03/31 05:01:43;;;;;;;9.13;4.10;;;;;;;-143.84;47.87;45178.56;5074161;28;20849;-77
2023/03/31 05:04:11;;;;;;;9.93;4.50;;;;;;;-143.84;46.47;45163.31;5074061;28;20457;-77
2023/03/31 05:06:38;;;;;;;12.30;4.83;;;;;;;-143.84;46.66;45186.16;5071371;28;20440;-67
2023/03/31 05:09:08;;;;;;;8.73;3.87;;;;;;;-143.84;45.83;45144.28;5069978;28;20456;-68
2023/03/31 05:11:35;;;;;;;5.27;3.93;;;;;;;-143.84;45.21;45176.66;5071170;28;20554;-68
2023/03/31 05:14:02;;;;;;;8.13;3.93;;;;;;;-143.84;45.05;45167.13;5071920;28;20958;-68
2023/03/31 05:16:30;;;;;;;19.27;4.60;;;;;;;-143.84;45.52;45150.00;5070646;28;20478;-69
2023/03/31 05:18:57;;;;;;;4.30;3.90;;;;;;;-143.84;45.76;45172.84;5071464;28;20511;-68
2023/03/31 05:21:25;;;;;;;3.83;3.63;;;;;;;-143.84;44.81;45153.81;5070738;28;20437;-72
2023/03/31 05:23:53;;;;;;;13.50;3.73;;;;;;;-143.84;45.15;45163.31;5069925;28;20437;-72
2023/03/31 05:26:23;;;;;;;3.90;3.60;;;;;;;-143.84;45.36;45176.66;5070351;28;20502;-72
2023/03/31 05:28:51;;;;;;;5.20;3.53;;;;;;;-143.84;45.33;45142.38;5070525;28;20507;-72
2023/03/31 05:31:18;;;;;;;6.50;4.83;;;;;;;-143.84;45.99;45170.94;5070572;28;20450;-72
2023/03/31 05:33:46;;;;;;;8.37;3.80;;;;;;;-143.84;45.75;45142.38;5070401;28;20480;-72
2023/03/31 05:36:15;;;;;;;7.93;3.80;;;;;;;-143.84;45.48;45148.09;5070200;28;20534;-72
2023/03/31 05:38:43;;;;;;;5.57;3.60;;;;;;;-143.84;45.09;45148.09;5070408;28;20432;-72
2023/03/31 05:41:11;;;;;;;9.30;4.63;;;;;;;-143.84;45.36;45151.91;5076344;28;20440;-76
2023/03/31 05:43:39;;;;;;;12.70;5.47;;;;;;;-143.84;45.58;45138.56;5077751;28;21036;-77
2023/03/31 05:46:08;;;;;;;32.70;5.20;;;;;;;-143.84;45.40;45167.13;5077739;28;20973;-76
2023/03/31 05:48:36;;;;;;;9.90;4.50;;;;;;;-143.84;45.43;45151.91;5077925;28;20503;-76
2023/03/31 05:51:04;;;;;;;17.43;5.43;;;;;;;-143.84;45.21;45193.78;5078714;28;20442;-76
2023/03/31 05:53:31;;;;;;;15.30;5.17;;;;;;;-143.84;46.01;45161.41;5078258;28;20471;-77
2023/03/31 05:56:00;;;;;;;15.43;4.80;;;;;;;-143.84;45.39;45155.69;5078312;28;20481;-77
2023/03/31 05:58:28;;;;;;;23.37;5.17;;;;;;;-143.84;45.75;45148.09;5078182;28;21168;-76
2023/03/31 06:01:05;;;;;;;11.07;4.10;;;;;;;-143.84;45.55;45134.75;5077645;28;20446;-76
2023/03/31 06:03:33;;;;;;;9.00;4.23;;;;;;;-143.84;45.64;45130.94;5078382;28;20477;-76
2023/03/31 06:06:00;;;;;;;8.50;4.13;;;;;;;-143.84;44.19;45174.75;5078933;28;20512;-76
2023/03/31 06:08:28;;;;;;;10.70;5.13;;;;;;;-143.84;44.11;45146.19;5078221;28;20954;-77
2023/03/31 06:10:55;;;;;;;4.70;3.80;;;;;;;-143.84;43.18;45138.56;5079183;28;20482;-76
2023/03/31 06:13:22;;;;;;;8.13;3.80;;;;;;;-143.84;43.43;45159.50;5079182;28;20440;-77
2023/03/31 06:15:54;;;;;;;6.47;4.93;;;;;;;-143.84;42.65;45157.59;5072798;28;20540;-77
2023/03/31 06:18:28;;;;;;;5.40;4.00;;;;;;;-143.84;42.50;45142.38;5072825;28;21093;-77
2023/03/31 06:20:58;;;;;;;19.03;7.53;;;;;;;-143.84;42.31;45138.56;5072375;28;20523;-77
2023/03/31 06:23:26;;;;;;;18.70;9.50;;;;;;;-143.84;42.31;45132.84;5072412;28;20498;-77
2023/03/31 06:25:53;;;;;;;11.57;6.37;;;;;;;-143.84;41.88;45146.19;5072628;28;20509;-77
2023/03/31 06:28:21;;;;;;;11.00;6.50;;;;;;;-143.84;41.98;45153.81;5072982;28;20443;-77
2023/03/31 06:30:49;;;;;;;9.33;4.70;;;;;;;-143.84;41.68;45132.84;5072445;28;20498;-76
2023/03/31 06:33:16;;;;;;;16.90;9.40;;;;;;;-143.84;41.43;45134.75;5071115;28;20438;-76
2023/03/31 06:35:45;;;;;;;9.33;4.47;;;;;;;-143.84;41.43;45127.13;5071600;28;20575;-77
2023/03/31 06:38:12;;;;;;;10.53;4.70;;;;;;;-143.84;41.95;45117.63;5070584;28;20998;-69
2023/03/31 06:40:39;;;;;;;11.93;5.13;;;;;;;-143.84;41.50;45127.13;5070325;28;20504;-69
2023/03/31 06:43:06;;;;;;;8.60;5.03;;;;;;;-143.84;41.72;45155.69;5070396;28;21012;-69
2023/03/31 06:45:33;;;;;;;6.73;4.00;;;;;;;-143.84;41.74;45129.03;5070461;28;20879;-77
2023/03/31 06:48:00;;;;;;;7.47;5.00;;;;;;;-143.84;41.57;45132.84;5072085;28;20857;-77
2023/03/31 06:50:27;;;;;;;6.17;4.50;;;;;;;-143.84;41.63;45136.66;5072098;28;20436;-77
2023/03/31 06:52:56;;;;;;;4.13;3.60;;;;;;;-143.84;41.47;45140.47;5072110;28;20926;-76
2023/03/31 06:55:23;;;;;;;12.43;4.27;;;;;;;-143.84;41.58;45136.66;5071860;28;20483;-77
2023/03/31 06:57:50;;;;;;;7.33;3.80;;;;;;;-143.84;41.55;45117.63;5073419;28;20439;-77
2023/03/31 07:00:18;;;;;;;4.70;3.60;;;;;;;-143.84;41.64;45136.66;5072481;28;20444;-77
2023/03/31 07:02:46;;;;;;;7.33;4.43;;;;;;;-143.84;41.59;45151.91;5071512;28;20451;-77
2023/03/31 07:05:13;;;;;;;8.40;4.20;;;;;;;-143.84;41.69;45159.50;5071345;28;20999;-77
2023/03/31 07:07:40;;;;;;;5.97;4.03;;;;;;;-143.84;41.63;45161.41;5071941;28;20442;-77
2023/03/31 07:10:09;;;;;;;6.63;4.40;;;;;;;-143.84;41.54;45140.47;5071141;28;20483;-77
2023/03/31 07:12:36;;;;;;;6.87;4.80;;;;;;;-143.84;41.65;45130.94;5072091;28;20456;-77
2023/03/31 07:15:03;;;;;;;9.03;5.30;;;;;;;-143.84;41.95;45129.03;5071467;28;20444;-77
2023/03/31 07:17:30;;;;;;;4.20;3.77;;;;;;;-143.84;41.48;45146.19;5071471;28;20440;-76
2023/03/31 07:19:59;;;;;;;6.40;4.70;;;;;;;-143.84;41.85;45144.28;5071737;28;20581;-76
2023/03/31 07:22:26;;;;;;;5.30;3.70;;;;;;;-143.84;41.20;45138.56;5075112;28;20442;-76
2023/03/31 07:24:53;;;;;;;12.30;8.57;;;;;;;-143.84;41.65;45148.09;5076619;28;20440;-76
2023/03/31 07:27:21;;;;;;;11.23;4.90;;;;;;;-143.84;41.88;45150.00;5077223;28;20455;-76
2023/03/31 07:29:49;;;;;;;8.60;4.43;;;;;;;-143.84;41.41;45134.75;5075606;28;20444;-76
2023/03/31 07:32:17;;;;;;;8.03;4.50;;;;;;;-143.84;41.86;45146.19;5078636;28;20427;-76
2023/03/31 07:34:44;;;;;;;4.87;4.30;;;;;;;-143.84;41.28;45151.91;5080628;28;20450;-76
2023/03/31 07:37:12;;;;;;;8.47;5.10;;;;;;;-143.84;41.33;45142.38;5081733;28;20859;-76
2023/03/31 07:39:39;;;;;;;6.90;4.90;;;;;;;-143.84;41.37;45129.03;5080467;28;20465;-76
2023/03/31 07:42:06;;;;;;;6.13;4.40;;;;;;;-143.84;41.42;45174.75;5080769;28;20435;-76
2023/03/31 07:44:35;;;;;;;10.50;5.70;;;;;;;-143.84;41.26;45146.19;5081067;28;20848;-76
2023/03/31 07:47:04;;;;;;;8.80;6.63;;;;;;;-143.84;41.26;45115.72;5080500;28;20482;-76
2023/03/31 07:49:32;;;;;;;13.43;8.30;;;;;;;-143.84;41.33;45134.75;5081154;28;20439;-77
2023/03/31 07:51:59;;;;;;;21.17;7.57;;;;;;;-143.84;41.33;45132.84;5077450;28;20440;-75
2023/03/31 07:54:26;;;;;;;14.27;9.37;;;;;;;-143.84;41.30;45148.09;5072688;28;20960;-75
2023/03/31 07:56:54;;;;;;;14.90;9.03;;;;;;;-143.84;41.34;45150.00;5071774;28;21001;-75
2023/03/31 07:59:21;;;;;;;15.50;10.17;;;;;;;-143.84;41.15;45153.81;5072094;28;20448;-75
2023/03/31 08:01:49;;;;;;;23.40;14.20;;;;;;;-143.84;41.57;45136.66;5072306;28;20449;-69
2023/03/31 08:04:17;;;;;;;24.60;13.50;;;;;;;-143.84;41.54;45140.47;5073283;28;20829;-69
2023/03/31 08:06:44;;;;;;;19.80;12.83;;;;;;;-143.84;41.34;45129.03;5073506;28;20836;-69
2023/03/31 08:09:11;;;;;;;26.80;12.40;;;;;;;-143.84;40.92;45132.84;5072862;28;20452;-69
2023/03/31 08:11:38;;;;;;;24.77;12.30;;;;;;;-143.84;41.17;45142.38;5073083;28;20494;-69
2023/03/31 08:14:06;;;;;;;17.93;9.30;;;;;;;-143.84;40.90;45140.47;5072924;28;20863;-69
2023/03/31 08:16:33;;;;;;;14.30;10.37;;;;;;;-143.84;41.11;45151.91;5073059;28;20481;-69
2023/03/31 08:19:02;;;;;;;15.10;9.80;;;;;;;-143.84;41.33;45117.63;5072635;28;20452;-69
2023/03/31 08:21:30;;;;;;;23.67;10.63;;;;;;;-143.84;41.63;45157.59;5071993;28;20488;-68
2023/03/31 08:23:57;;;;;;;12.80;9.37;;;;;;;-143.84;41.93;45144.28;5072281;28;20440;-69
2023/03/31 08:26:24;;;;;;;11.77;9.63;;;;;;;-143.84;42.04;45150.00;5072686;28;20435;-75
2023/03/31 08:28:52;;;;;;;20.20;9.80;;;;;;;-143.84;42.39;45123.34;5071928;28;20513;-75
2023/03/31 08:31:22;;;;;;;21.87;10.70;;;;;;;-143.84;42.76;45130.94;5071696;28;20440;-75
2023/03/31 08:33:49;;;;;;;17.93;10.60;;;;;;;-143.84;43.26;45151.91;5071774;28;20501;-74
2023/03/31 08:36:18;;;;;;;24.03;10.33;;;;;;;-143.84;44.28;45153.81;5072025;28;20824;-75
2023/03/31 08:38:48;;;;;;;11.30;8.67;;;;;;;-143.84;43.90;45129.03;5072838;28;20448;-74
2023/03/31 08:41:30;;;;;;;13.43;10.07;;;;;;;-143.84;44.62;45144.28;5071833;28;21016;-75
2023/03/31 08:44:01;;;;;;;16.43;10.53;;;;;;;-143.84;45.86;45146.19;5071307;28;20444;-74
2023/03/31 08:46:32;;;;;;;23.77;12.50;;;;;;;-143.84;47.97;45140.47;5070574;28;20589;-75
2023/03/31 08:49:01;;;;;;;16.53;13.47;;;;;;;-143.84;49.93;45144.28;5070528;28;20860;-75
2023/03/31 08:51:33;;;;;;;22.50;14.70;;;;;;;-143.84;52.58;45140.47;5070544;28;20451;-73
2023/03/31 08:54:03;;;;;;;24.77;15.40;;;;;;;-143.84;54.75;45121.44;5070264;28;20458;-75
2023/03/31 08:56:37;;;;;;;22.07;15.37;;;;;;;-143.84;57.95;45161.41;5070283;28;21015;-74
2023/03/31 08:59:05;;;;;;;20.97;15.27;;;;;;;-143.84;60.78;45140.47;5070838;28;20824;-74
2023/03/31 09:01:42;;;;;;;23.43;13.13;;;;;;;-143.84;62.34;45151.91;5070496;28;20484;-74
2023/03/31 09:04:26;;;;;;;23.90;14.23;;;;;;;-143.84;63.90;45169.03;5070823;28;20441;-75
2023/03/31 09:07:03;;;;;;;25.50;17.17;;;;;;;-143.84;64.78;45142.38;5071125;28;20526;-74
2023/03/31 09:09:40;;;;;;;26.20;17.40;;;;;;;-143.84;65.90;45153.81;5070947;28;20536;-74
2023/03/31 09:12:12;;;;;;;22.93;16.90;;;;;;;-143.84;67.41;45159.50;5070394;28;20512;-74
2023/03/31 09:14:45;;;;;;;27.20;18.60;;;;;;;-143.84;68.06;45142.38;5070603;28;20985;-74
2023/03/31 09:17:18;;;;;;;25.10;17.63;;;;;;;-143.84;69.08;45144.28;5070321;28;20585;-74
2023/03/31 09:19:52;;;;;;;26.90;18.30;;;;;;;-143.84;70.18;45102.38;5070983;28;20422;-75
2023/03/31 09:22:24;;;;;;;29.77;17.27;;;;;;;-143.84;69.59;45170.94;5070917;28;20944;-74
2023/03/31 09:24:58;;;;;;;32.27;19.00;;;;;;;-143.84;70.06;45129.03;5070899;28;20516;-75
2023/03/31 09:27:30;;;;;;;25.63;17.70;;;;;;;-143.84;70.46;45153.81;5070889;28;20786;-74
2023/03/31 09:30:00;;;;;;;26.23;17.10;;;;;;;-143.84;71.47;45153.81;5070955;28;20515;-75
2023/03/31 09:32:30;;;;;;;19.40;15.03;;;;;;;-143.84;72.25;45132.84;5070985;28;20434;-75
2023/03/31 09:35:01;;;;;;;18.50;14.70;;;;;;;-143.84;72.84;45140.47;5070787;28;20469;-74
2023/03/31 09:37:32;;;;;;;15.53;11.47;;;;;;;-143.84;73.53;45132.84;5069653;28;20482;-72
2023/03/31 09:40:06;;;;;;;20.60;11.43;;;;;;;-143.84;73.70;45130.94;5070008;28;20445;-74
2023/03/31 09:42:34;;;;;;;16.07;11.83;;;;;;;-143.84;75.38;45092.88;5069703;28;20474;-74
2023/03/31 09:45:01;;;;;;;14.33;10.70;;;;;;;-143.84;75.88;45136.66;5070306;28;20839;-74
2023/03/31 09:47:33;;;;;;;14.33;10.40;;;;;;;-143.84;75.81;45104.28;5070491;28;20442;-76
2023/03/31 09:50:00;;;;;;;13.87;10.03;;;;;;;-143.84;77.35;45081.44;5070519;28;20441;-73
2023/03/31 09:52:32;;;;;;;14.63;11.10;;;;;;;-143.84;78.23;45096.66;5070388;28;20434;-75
2023/03/31 09:55:01;;;;;;;16.67;10.70;;;;;;;-143.84;79.45;45035.75;5069862;28;21252;-75
2023/03/31 09:57:33;;;;;;;17.70;11.57;;;;;;;-143.84;80.17;44988.13;5069942;28;20854;-75
2023/03/31 10:00:13;;;;;;;17.70;12.57;;;;;;;-143.84;81.41;44911.97;5070338;28;21001;-75
2023/03/31 10:02:44;;;;;;;17.60;9.80;;;;;;;-143.84;81.76;44824.38;5070277;28;20459;-75
2023/03/31 10:05:27;;;;;;;16.10;11.10;;;;;;;-143.84;82.47;44752.03;5070225;28;20437;-74
2023/03/31 10:08:19;;;;;;;23.90;12.60;;;;;;;-143.84;82.92;44698.72;5069955;28;20446;-75
2023/03/31 10:10:50;;;;;;;14.07;11.10;;;;;;;-143.84;83.11;44626.38;5069675;28;20568;-77
2023/03/31 10:13:20;;;;;;;16.57;11.93;;;;;;;-143.84;84.19;44293.19;5069361;28;21108;-75
2023/03/31 10:15:47;;;;;;;15.83;10.63;;;;;;;-143.84;84.88;44175.16;5069680;28;20954;-75
2023/03/31 10:18:17;;;;;;;18.73;12.00;;;;;;;-143.84;85.47;44026.69;5070092;28;20886;-76
2023/03/31 10:20:48;;;;;;;13.30;9.30;;;;;;;-143.84;85.40;44009.56;5070029;28;20883;-75
2023/03/31 10:23:23;;;;;;;15.07;10.17;;;;;;;-143.84;85.63;43939.13;5069832;28;20445;-76
2023/03/31 10:25:51;;;;;;;16.03;11.90;;;;;;;-143.84;86.45;43849.66;5069426;28;20981;-76
2023/03/31 10:28:20;;;;;;;16.00;8.63;;;;;;;-143.84;84.94;44064.75;5069365;28;20445;-75
2023/03/31 10:30:49;;;;;;;16.27;11.20;;;;;;;-143.84;85.94;43990.53;5069202;28;20441;-76
2023/03/31 10:33:19;;;;;;;16.80;11.10;;;;;;;-143.84;85.93;43908.66;5069273;28;20449;-76
2023/03/31 10:35:50;;;;;;;14.50;9.27;;;;;;;-143.84;86.51;43864.88;5069768;28;20452;-76
2023/03/31 10:38:26;;;;;;;12.17;9.20;;;;;;;-143.84;86.55;43893.44;5068792;28;20513;-76
2023/03/31 10:40:56;;;;;;;8.60;7.80;;;;;;;-143.84;85.79;43889.63;5069774;28;20938;-76
2023/03/31 10:43:28;;;;;;;9.17;6.97;;;;;;;-143.84;85.50;43982.91;5069873;28;20434;-76
2023/03/31 10:45:58;;;;;;;9.43;6.93;;;;;;;-143.84;85.84;43942.94;5070296;28;20506;-76
2023/03/31 10:48:28;;;;;;;9.90;7.87;;;;;;;-143.84;86.19;43929.59;5069616;28;20527;-76
2023/03/31 10:51:00;;;;;;;15.97;9.03;;;;;;;-143.84;85.85;43895.34;5070097;28;20446;-70
2023/03/31 10:53:29;;;;;;;8.93;7.13;;;;;;;-143.84;86.19;43912.47;5071165;28;20451;-70
2023/03/31 10:56:11;;;;;;;8.90;7.80;;;;;;;-143.84;85.94;43971.47;5070995;28;20541;-70
2023/03/31 10:58:52;;;;;;;12.30;8.50;;;;;;;-143.84;85.78;43946.75;5058140;28;20534;-70
2023/03/31 11:01:29;;;;;;;13.97;7.87;;;;;;;-143.84;85.84;43948.63;5050756;28;20516;-70
2023/03/31 11:04:28;;;;;;;8.33;7.47;;;;;;;-143.84;86.41;43880.13;5050571;28;20942;-70
2023/03/31 11:07:03;;;;;;;12.07;8.30;;;;;;;-143.84;86.27;43880.13;5066763;28;20525;-70
2023/03/31 11:09:41;;;;;;;12.60;8.17;;;;;;;-143.84;85.31;44013.38;5070257;28;20451;-70
2023/03/31 11:12:17;;;;;;;11.77;9.67;;;;;;;-143.84;85.11;44055.25;5070151;28;20483;-70
2023/03/31 11:14:54;;;;;;;14.10;10.40;;;;;;;-143.84;84.97;44104.72;5070164;28;20440;-69
2023/03/31 11:17:32;;;;;;;14.60;10.93;;;;;;;-143.84;84.49;44180.88;5069320;28;20490;-75
2023/03/31 11:20:11;;;;;;;13.00;9.97;;;;;;;-143.84;84.17;44409.34;5069354;28;20450;-76
2023/03/31 11:22:51;;;;;;;17.27;11.67;;;;;;;-143.84;83.95;44422.66;5069142;28;20447;-76
2023/03/31 11:25:34;;;;;;;22.93;12.57;;;;;;;-143.84;84.30;44274.16;5069107;28;20949;-76
2023/03/31 11:28:20;;;;;;;19.23;12.27;;;;;;;-143.84;84.26;44291.28;5069258;28;20464;-76
2023/03/31 11:30:55;;;;;;;16.07;9.80;;;;;;;-143.84;83.80;44466.44;5069158;28;20523;-76